K6CQU-13 Weather Reports


Display with metric or nautical units.
time (UTC)temp
F
wind
direction
speed
MPH
gust
MPH
rain 1hr
in
rain 24hr
in
rain mn
in
humidity
%
barometer
mb
20260506134517 56 0.0 0.0 0.00 0.00 0.00 83 1020.1
20260506134017 56 0.0 0.0 0.00 0.00 0.00 83 1019.9
20260506133517 56 0.0 0.0 0.00 0.00 0.00 83 1020.1
20260506133017 56 0.0 0.0 0.00 0.00 0.00 83 1019.9
20260506132517 56 0.0 0.0 0.00 0.00 0.00 83 1019.9
20260506132017 56 0.0 0.0 0.00 0.00 0.00 83 1019.8
20260506131517 56 0.0 0.0 0.00 0.00 0.00 83 1019.7
20260506131017 56 0.0 0.0 0.00 0.00 0.00 83 1019.7
20260506130517 56 0.0 0.0 0.00 0.00 0.00 83 1019.7
20260506130017 56 0.0 0.0 0.00 0.00 0.00 82 1019.7
20260506125517 56 0.0 0.0 0.00 0.00 0.00 82 1019.6
20260506125017 56 0.0 0.0 0.00 0.00 0.00 82 1019.6
20260506124517 56 0.0 0.0 0.00 0.00 0.00 82 1019.6
20260506124017 56 0.0 0.0 0.00 0.00 0.00 82 1019.5
20260506123517 56 0.0 0.0 0.00 0.00 0.00 82 1019.5
20260506123017 56 0.0 0.0 0.00 0.00 0.00 82 1019.5
20260506122517 56 0.0 0.0 0.00 0.00 0.00 82 1019.5
20260506122017 56 0.0 0.0 0.00 0.00 0.00 82 1019.5
20260506121517 56 0.0 0.0 0.00 0.00 0.00 82 1019.5
20260506121017 56 0.0 0.0 0.00 0.00 0.00 82 1019.5
20260506120517 56 0.0 0.0 0.00 0.00 0.00 82 1019.5
20260506120017 56 0.0 0.0 0.00 0.00 0.00 82 1019.4
20260506115517 56 0.0 0.0 0.00 0.00 0.00 82 1019.4
20260506115017 56 0.0 0.0 0.00 0.00 0.00 82 1019.4
20260506114517 56 0.0 0.0 0.00 0.00 0.00 82 1019.3
20260506114017 56 0.0 0.0 0.00 0.00 0.00 82 1019.3
20260506113517 56 0.0 0.0 0.00 0.00 0.00 82 1019.3
20260506113017 56 0.0 0.0 0.00 0.00 0.00 82 1019.2
20260506112517 56 0.0 0.0 0.00 0.00 0.00 82 1019.2
20260506112017 56 0.0 0.0 0.00 0.01 0.00 81 1019.1
20260506111517 56 292 0.0 5.0 0.00 0.01 0.00 81 1019.1
20260506111017 56 292 0.0 4.0 0.00 0.01 0.00 81 1019.0
20260506110517 56 292 1.0 6.0 0.00 0.01 0.00 81 1018.9
20260506110017 56 270 3.0 7.0 0.00 0.01 0.00 81 1018.9
20260506105517 56 270 3.0 9.0 0.00 0.01 0.00 81 1018.9
20260506105017 56 270 1.0 8.0 0.00 0.01 0.00 81 1018.9
20260506104517 57 270 3.0 8.0 0.00 0.02 0.00 81 1018.9
20260506104017 57 270 4.0 9.0 0.00 0.02 0.00 81 1018.8
20260506103517 57 270 4.0 8.0 0.00 0.02 0.00 81 1018.8
20260506103017 57 270 3.0 8.0 0.00 0.02 0.00 81 1018.9
20260506102517 57 270 2.0 8.0 0.00 0.02 0.00 81 1018.8
20260506102017 57 270 4.0 8.0 0.00 0.02 0.00 81 1018.8
20260506101516 57 270 2.0 7.0 0.00 0.02 0.00 81 1018.7
20260506101017 57 270 4.0 9.0 0.00 0.03 0.00 81 1018.8
20260506100517 57 292 4.0 10.0 0.00 0.03 0.00 81 1018.7
20260506100017 57 270 4.0 10.0 0.00 0.03 0.00 81 1018.7
20260506095516 57 270 3.0 8.0 0.00 0.03 0.00 81 1018.7
20260506095017 57 292 2.0 5.0 0.00 0.03 0.00 81 1018.7
20260506094517 57 292 2.0 7.0 0.00 0.03 0.00 81 1018.6
20260506094017 57 292 0.0 6.0 0.00 0.03 0.00 82 1018.6
20260506093517 57 0.0 0.0 0.00 0.04 0.00 82 1018.6
20260506093017 57 0.0 0.0 0.00 0.04 0.00 82 1018.6
20260506092516 57 0.0 0.0 0.00 0.05 0.00 82 1018.6
20260506092016 57 0.0 0.0 0.00 0.06 0.00 82 1018.6
20260506091517 57 0.0 0.0 0.00 0.06 0.00 82 1018.6
20260506091017 56 0.0 0.0 0.00 0.06 0.00 82 1018.6
20260506090517 56 0.0 0.0 0.00 0.06 0.00 82 1018.7
20260506090016 56 0.0 0.0 0.00 0.06 0.00 83 1018.7
20260506085516 56 0.0 0.0 0.00 0.06 0.00 83 1018.7
20260506085016 56 0.0 0.0 0.00 0.06 0.00 83 1018.8
20260506084517 56 0.0 0.0 0.00 0.07 0.00 83 1018.8
20260506084016 56 0.0 0.0 0.00 0.07 0.00 84 1018.8
20260506083516 56 0.0 0.0 0.00 0.08 0.00 84 1018.7
20260506083017 56 0.0 0.0 0.00 0.09 0.00 84 1018.7
20260506082516 56 0.0 0.0 0.00 0.09 0.00 84 1018.8
20260506082016 56 0.0 0.0 0.00 0.09 0.00 84 1018.8
20260506081516 56 0.0 0.0 0.00 0.09 0.00 84 1018.7
20260506081017 56 0.0 0.0 0.00 0.10 0.00 84 1018.7
20260506080516 56 0.0 0.0 0.00 0.10 0.00 85 1018.6
20260506073516 55 0.0 0.0 0.00 0.10 0.00 85 1018.3
20260506073016 55 0.0 0.0 0.00 0.10 0.00 85 1018.3
20260506072516 55 0.0 0.0 0.00 0.10 0.00 85 1018.3
20260506072016 55 0.0 0.0 0.00 0.10 0.00 84 1018.2
20260506071516 55 0.0 0.0 0.00 0.10 0.00 84 1018.1
20260506071016 55 0.0 0.0 0.00 0.10 0.00 83 1018.2
20260506070516 55 0.0 0.0 0.00 0.10 0.00 83 1018.2
20260506062517 56 270 1.0 7.0 0.00 0.13 0.11 83 1017.8
20260506062017 56 0.0 0.0 0.00 0.13 0.11 83 1017.8
20260506061517 56 0.0 0.0 0.00 0.13 0.11 83 1017.7
20260506061017 56 0.0 0.0 0.00 0.13 0.11 83 1017.7
20260506060517 56 0.0 0.0 0.00 0.13 0.11 83 1017.7
20260506051017 58 0.0 0.0 0.00 0.13 0.11 79 1017.3
20260506050516 58 0.0 0.0 0.00 0.13 0.11 79 1017.2
20260506045016 59 0.0 0.0 0.00 0.13 0.11 77 1017.1
20260506044517 59 0.0 0.0 0.00 0.13 0.11 76 1017.0
20260506044016 59 0.0 0.0 0.00 0.13 0.11 76 1017.0
20260506043517 60 0.0 0.0 0.00 0.13 0.11 76 1016.9
20260506043017 60 0.0 0.0 0.00 0.13 0.11 76 1016.8
20260506042516 60 247 2.0 9.0 0.00 0.13 0.11 76 1016.8
20260506042016 60 270 4.0 8.0 0.00 0.13 0.11 76 1016.6
20260506041517 60 247 2.0 6.0 0.00 0.13 0.11 75 1016.5
20260506041017 60 247 3.0 7.0 0.00 0.13 0.11 74 1016.5
20260506040517 60 247 2.0 5.0 0.00 0.13 0.11 74 1016.4
20260506040016 61 247 0.0 6.0 0.00 0.13 0.11 73 1016.4
20260506035516 61 0.0 0.0 0.00 0.13 0.11 73 1016.4
20260506035016 61 247 0.0 1.0 0.00 0.13 0.11 73 1016.3
20260506034516 61 225 1.0 7.0 0.00 0.13 0.11 73 1016.4
20260506034017 61 225 4.0 10.0 0.00 0.13 0.11 72 1016.3
20260506033516 61 225 4.0 8.0 0.00 0.13 0.11 72 1016.2
20260506033016 61 225 5.0 9.0 0.00 0.13 0.11 72 1016.1
20260506032516 61 225 5.0 10.0 0.00 0.13 0.11 72 1015.9
20260506032017 62 225 3.0 10.0 0.00 0.13 0.11 72 1015.9
20260506031516 62 225 3.0 8.0 0.00 0.13 0.11 72 1015.8
20260506031016 62 225 5.0 10.0 0.00 0.13 0.11 72 1015.8
20260506030516 62 225 6.0 9.0 0.00 0.13 0.11 72 1015.8
20260506030016 62 225 5.0 10.0 0.00 0.13 0.11 72 1015.8
20260506025516 62 225 3.0 10.0 0.00 0.13 0.11 72 1015.8
20260506025016 62 225 4.0 8.0 0.00 0.13 0.11 72 1015.8
20260506024516 62 202 3.0 8.0 0.00 0.13 0.11 71 1015.6
20260506024016 62 225 6.0 9.0 0.00 0.13 0.11 71 1015.6
20260506023516 63 225 6.0 10.0 0.00 0.13 0.11 71 1015.6
20260506023016 63 225 6.0 10.0 0.00 0.13 0.11 70 1015.5
20260506022516 63 225 5.0 9.0 0.00 0.13 0.11 70 1015.5
20260506022016 63 225 4.0 9.0 0.00 0.13 0.11 70 1015.4
20260506021516 64 225 3.0 7.0 0.00 0.13 0.11 70 1015.3
20260506021016 64 225 3.0 8.0 0.00 0.13 0.11 69 1015.3
20260506020516 64 225 4.0 8.0 0.00 0.13 0.11 69 1015.3
20260506020016 64 202 3.0 5.0 0.00 0.13 0.11 69 1015.2
20260506015516 64 202 3.0 7.0 0.00 0.13 0.11 69 1015.2
20260506015016 64 0.0 0.0 0.00 0.13 0.11 69 1015.2
20260506014516 64 0.0 0.0 0.00 0.13 0.11 69 1015.1
20260506014016 65 0.0 0.0 0.00 0.13 0.11 69 1015.2
20260506013516 65 0.0 0.0 0.00 0.13 0.11 69 1015.2
20260506013016 65 0.0 0.0 0.00 0.13 0.11 69 1015.2
20260506012516 65 157 0.0 3.0 0.00 0.13 0.11 68 1015.2
20260506012016 65 157 1.0 4.0 0.00 0.13 0.11 69 1015.2
20260506011516 65 157 0.0 3.0 0.00 0.13 0.11 68 1015.1
20260506011016 65 157 0.0 5.0 0.00 0.13 0.11 68 1015.1
20260506010516 65 157 1.0 4.0 0.00 0.13 0.11 67 1015.1
20260506010016 65 157 0.0 3.0 0.00 0.13 0.11 68 1015.1
20260506005516 66 157 2.0 6.0 0.00 0.13 0.11 67 1015.1
20260506005016 66 180 1.0 4.0 0.00 0.13 0.11 67 1015.1
20260506004516 66 180 1.0 4.0 0.00 0.13 0.11 67 1015.1
20260506004016 66 180 2.0 6.0 0.00 0.13 0.11 68 1015.1
20260506003516 65 202 2.0 5.0 0.00 0.13 0.11 69 1015.1
20260506003016 65 202 2.0 6.0 0.00 0.13 0.11 70 1015.1
20260506002518 65 202 2.0 6.0 0.00 0.13 0.11 69 1015.0
20260506002018 65 202 3.0 8.0 0.00 0.13 0.11 69 1015.0
20260506001518 65 202 2.0 7.0 0.00 0.13 0.11 70 1014.9
20260506001018 64 225 1.0 5.0 0.00 0.13 0.11 70 1015.0
20260506000518 64 225 2.0 6.0 0.00 0.13 0.11 70 1015.0
20260506000018 64 270 0.0 3.0 0.00 0.13 0.11 70 1015.0
20260505235518 64 270 1.0 6.0 0.00 0.13 0.11 70 1015.0
20260505235018 65 337 2.0 6.0 0.00 0.13 0.11 69 1015.0
20260505234518 65 292 1.0 7.0 0.00 0.13 0.11 69 1015.0
20260505234018 65 0.0 0.0 0.00 0.13 0.11 70 1015.0
20260505233518 65 0.0 0.0 0.00 0.13 0.11 70 1015.0
20260505233018 65 0.0 0.0 0.00 0.13 0.11 70 1015.0
20260505232518 65 0.0 0.0 0.00 0.13 0.11 70 1015.0
20260505232018 65 0.0 0.0 0.00 0.13 0.11 71 1015.0
20260505231518 64 0.0 0.0 0.00 0.13 0.11 71 1015.0
20260505231018 64 0.0 0.0 0.00 0.13 0.11 71 1015.1
20260505230518 64 0.0 0.0 0.00 0.13 0.11 71 1015.1
20260505230018 64 0.0 0.0 0.00 0.13 0.11 70 1015.1
20260505225518 64 0.0 0.0 0.00 0.13 0.11 70 1015.1
20260505225018 64 0.0 0.0 0.00 0.13 0.11 70 1015.1
20260505224517 64 315 1.0 5.0 0.00 0.13 0.11 70 1015.2
20260505224018 64 0.0 0.0 0.00 0.13 0.11 71 1015.1
20260505223518 64 0.0 0.0 0.00 0.13 0.11 71 1015.2
20260505223018 64 0.0 0.0 0.00 0.13 0.11 70 1015.2
20260505222517 64 0.0 0.0 0.00 0.13 0.11 70 1015.2
20260505222018 64 0.0 0.0 0.00 0.13 0.11 72 1015.3
20260505221517 64 270 2.0 6.0 0.00 0.13 0.11 71 1015.4
20260505221018 64 270 1.0 6.0 0.00 0.13 0.11 71 1015.4
20260505220518 64 315 0.0 2.0 0.00 0.13 0.11 72 1015.3
20260505220018 63 292 2.0 8.0 0.00 0.13 0.11 72 1015.4
20260505215517 63 270 1.0 6.0 0.00 0.13 0.11 72 1015.4
20260505215018 63 0.0 0.0 0.00 0.13 0.11 73 1015.4
20260505214517 63 270 1.0 6.0 0.00 0.13 0.11 74 1015.4
20260505214018 63 270 4.0 8.0 0.00 0.13 0.11 73 1015.4
20260505213518 63 270 3.0 7.0 0.00 0.13 0.11 73 1015.5
20260505213017 63 292 2.0 7.0 0.00 0.13 0.11 73 1015.5
20260505212518 63 292 4.0 8.0 0.00 0.13 0.11 73 1015.5
20260505212018 63 225 4.0 8.0 0.00 0.13 0.11 72 1015.5
20260505211518 63 202 2.0 6.0 0.00 0.13 0.11 72 1015.5
20260505211017 63 292 0.0 5.0 0.00 0.13 0.11 72 1015.6
20260505210517 63 225 4.0 7.0 0.00 0.13 0.11 72 1015.6
20260505210017 63 225 4.0 8.0 0.00 0.13 0.11 73 1015.6
20260505205517 63 225 6.0 10.0 0.00 0.13 0.11 73 1015.6
20260505205017 63 247 3.0 10.0 0.00 0.13 0.11 75 1015.7
20260505204517 62 270 2.0 6.0 0.00 0.13 0.11 74 1015.8
20260505204018 62 247 5.0 10.0 0.00 0.13 0.11 75 1015.8
20260505203517 62 270 5.0 10.0 0.00 0.13 0.11 75 1015.8
20260505203017 62 247 3.0 8.0 0.00 0.13 0.11 76 1015.7
20260505202517 62 270 2.0 8.0 0.00 0.13 0.11 76 1015.8
20260505202018 61 292 4.0 10.0 0.00 0.13 0.11 75 1015.8
20260505201517 62 270 2.0 8.0 0.00 0.13 0.11 76 1015.9
20260505201017 61 270 3.0 8.0 0.00 0.13 0.11 75 1015.9
20260505200517 61 270 6.0 14.0 0.00 0.13 0.11 75 1015.8
20260505200017 62 270 6.0 11.0 0.00 0.13 0.11 75 1015.8
20260505195517 62 292 5.0 12.0 0.00 0.13 0.11 74 1015.9
20260505195017 62 292 5.0 12.0 0.00 0.13 0.11 74 1015.8
20260505194517 62 292 5.0 11.0 0.00 0.13 0.11 73 1015.9
20260505194017 63 270 5.0 13.0 0.00 0.13 0.11 74 1015.9
20260505193517 63 247 7.0 14.0 0.00 0.13 0.11 74 1015.9
20260505193017 62 270 4.0 11.0 0.00 0.13 0.11 77 1015.8
20260505192517 61 270 5.0 9.0 0.00 0.13 0.11 77 1015.9
20260505192017 61 270 5.0 11.0 0.00 0.13 0.11 77 1015.9
20260505191517 61 292 5.0 9.0 0.00 0.13 0.11 78 1015.8
20260505191017 60 270 6.0 10.0 0.00 0.13 0.11 79 1015.8
20260505190517 60 292 6.0 11.0 0.00 0.13 0.11 78 1015.9
20260505190017 59 270 7.0 11.0 0.00 0.13 0.11 78 1015.9
20260505185517 59 270 3.0 9.0 0.00 0.13 0.11 80 1015.9
20260505185017 59 270 4.0 8.0 0.00 0.13 0.11 80 1015.9
20260505184517 59 270 5.0 10.0 0.00 0.13 0.11 80 1015.9
20260505184017 59 270 5.0 10.0 0.00 0.13 0.11 80 1015.9
20260505183517 59 270 5.0 9.0 0.00 0.13 0.11 80 1015.8
20260505183017 59 270 4.0 8.0 0.00 0.13 0.11 81 1015.8
20260505182517 59 270 4.0 10.0 0.00 0.13 0.11 81 1015.8
20260505182017 59 270 6.0 12.0 0.00 0.13 0.11 81 1015.8
20260505181517 59 270 5.0 12.0 0.00 0.13 0.11 82 1015.8
20260505181017 58 270 6.0 11.0 0.00 0.13 0.11 83 1015.7
20260505180517 58 270 5.0 13.0 0.00 0.13 0.11 83 1015.7
20260505180017 58 292 5.0 11.0 0.00 0.13 0.11 84 1015.7
20260505175517 58 292 7.0 12.0 0.00 0.13 0.11 83 1015.7
20260505175017 58 270 6.0 11.0 0.00 0.13 0.11 84 1015.7
20260505174517 58 270 5.0 10.0 0.00 0.13 0.11 84 1015.7
20260505174017 58 270 5.0 11.0 0.00 0.13 0.11 85 1015.6
20260505173517 58 247 6.0 11.0 0.00 0.13 0.11 86 1015.5
20260505173017 57 270 5.0 10.0 0.00 0.13 0.11 86 1015.4
20260505172517 57 247 5.0 11.0 0.00 0.13 0.11 87 1015.4
20260505172017 57 270 7.0 12.0 0.00 0.13 0.11 87 1015.3
20260505171517 57 270 6.0 11.0 0.00 0.13 0.11 88 1015.4
20260505171017 56 247 6.0 12.0 0.00 0.13 0.11 88 1015.4
20260505170517 56 270 6.0 11.0 0.00 0.13 0.11 89 1015.4
20260505170017 56 270 5.0 11.0 0.00 0.13 0.11 89 1015.4
20260505165517 56 270 6.0 12.0 0.00 0.13 0.11 89 1015.4
20260505165017 56 270 6.0 12.0 0.00 0.13 0.11 89 1015.5
20260505164517 56 270 5.0 11.0 0.00 0.13 0.11 89 1015.5
20260505164017 56 270 6.0 11.0 0.00 0.13 0.11 89 1015.5
20260505163517 56 270 6.0 11.0 0.00 0.13 0.11 88 1015.5
20260505163017 56 270 6.0 10.0 0.00 0.13 0.11 88 1015.5
20260505162517 56 270 6.0 13.0 0.00 0.13 0.11 88 1015.4
20260505162017 56 270 4.0 12.0 0.00 0.13 0.11 88 1015.4
20260505161517 56 270 4.0 9.0 0.00 0.13 0.11 88 1015.4
20260505161017 56 270 4.0 9.0 0.00 0.13 0.11 88 1015.4
20260505160517 56 270 4.0 11.0 0.00 0.13 0.11 88 1015.3
20260505153017 55 270 4.0 10.0 0.00 0.13 0.11 89 1015.1
20260505152516 55 247 4.0 9.0 0.00 0.13 0.11 89 1015.1
20260505152016 55 247 3.0 9.0 0.00 0.13 0.11 89 1015.0
20260505151517 55 247 4.0 9.0 0.00 0.13 0.11 90 1014.9
20260505151017 55 247 3.0 10.0 0.00 0.13 0.11 90 1014.9
20260505150516 54 247 4.0 12.0 0.00 0.13 0.11 90 1014.9
20260505140516 53 0.0 0.0 0.00 0.13 0.11 94 1014.5